createdAt,value
2019-04-28T00:00:33.453Z,0.00
2019-04-28T00:02:26.356Z,0.00
2019-04-28T00:03:26.366Z,0.00
2019-04-28T00:05:21.025Z,0.00
2019-04-28T00:06:21.070Z,0.00
2019-04-28T00:08:12.189Z,0.00
2019-04-28T00:09:12.193Z,0.00
2019-04-28T00:11:05.094Z,0.00
2019-04-28T00:12:05.104Z,0.00
2019-04-28T00:13:58.016Z,0.00
2019-04-28T00:14:58.015Z,0.00
2019-04-28T00:16:51.290Z,0.00
2019-04-28T00:17:51.612Z,0.00
2019-04-28T00:19:43.836Z,0.00
2019-04-28T00:20:43.841Z,0.00
2019-04-28T00:22:36.742Z,0.00
2019-04-28T00:23:36.752Z,0.00
2019-04-28T00:25:31.210Z,0.00
2019-04-28T00:26:31.073Z,0.00
2019-04-28T00:28:22.576Z,0.00
2019-04-28T00:29:22.577Z,0.00
2019-04-28T00:31:15.482Z,0.00
2019-04-28T00:32:15.494Z,0.00
2019-04-28T00:34:08.401Z,0.00
2019-04-28T00:35:08.405Z,0.00
2019-04-28T00:37:01.428Z,0.00
2019-04-28T00:38:01.506Z,0.00
2019-04-28T00:39:54.229Z,0.00
2019-04-28T00:40:54.232Z,0.00
2019-04-28T00:42:47.136Z,0.00
2019-04-28T00:43:47.147Z,0.00
2019-04-28T00:45:41.351Z,0.00
2019-04-28T00:46:41.065Z,0.00
2019-04-28T00:48:32.969Z,0.00
2019-04-28T00:49:32.972Z,0.00
2019-04-28T00:51:25.876Z,0.00
2019-04-28T00:52:25.883Z,0.00
2019-04-28T00:54:18.794Z,0.00
2019-04-28T00:55:18.799Z,0.00
2019-04-28T00:57:11.703Z,0.00
2019-04-28T00:58:11.712Z,0.00
2019-04-28T01:00:04.619Z,0.00
2019-04-28T01:01:04.624Z,0.00
2019-04-28T01:02:57.524Z,0.00
2019-04-28T01:03:57.534Z,0.00
2019-04-28T01:05:50.892Z,0.00
2019-04-28T01:06:52.042Z,0.00
2019-04-28T01:08:43.359Z,0.00
2019-04-28T01:09:43.363Z,0.00
2019-04-28T01:11:36.266Z,0.00
2019-04-28T01:12:36.275Z,0.00
2019-04-28T01:14:30.909Z,0.00
2019-04-28T01:15:29.846Z,0.00
2019-04-28T01:17:22.098Z,0.00
2019-04-28T01:18:22.103Z,0.00
2019-04-28T01:20:15.014Z,0.00
2019-04-28T01:21:15.020Z,0.00
2019-04-28T01:23:07.919Z,0.00
2019-04-28T01:24:09.505Z,0.00
2019-04-28T01:26:00.839Z,0.00
2019-04-28T01:27:00.843Z,0.00
2019-04-28T01:28:53.751Z,0.00
2019-04-28T01:30:05.366Z,0.00
2019-04-28T01:31:46.660Z,0.00
2019-04-28T01:32:46.669Z,0.00
2019-04-28T01:34:40.083Z,0.00
2019-04-28T01:35:39.808Z,0.00
2019-04-28T01:37:32.485Z,0.00
2019-04-28T01:38:32.497Z,0.00
2019-04-28T01:40:25.406Z,0.00
2019-04-28T01:41:25.410Z,0.00
2019-04-28T01:43:19.593Z,0.00
2019-04-28T01:44:19.874Z,0.00
2019-04-28T01:46:11.225Z,0.00
2019-04-28T01:47:11.233Z,0.00
2019-04-28T01:49:04.144Z,0.00
2019-04-28T01:50:04.150Z,0.00
2019-04-28T01:51:57.053Z,0.00
2019-04-28T01:52:57.063Z,0.00
2019-04-28T01:54:50.284Z,0.00
2019-04-28T01:55:49.979Z,0.00
2019-04-28T01:57:42.881Z,0.00
2019-04-28T01:58:42.892Z,0.00
2019-04-28T02:00:35.801Z,0.00
2019-04-28T02:01:35.806Z,0.00
2019-04-28T02:03:30.600Z,0.00
2019-04-28T02:04:30.087Z,0.00
2019-04-28T02:06:21.628Z,0.00
2019-04-28T02:07:21.634Z,0.00
2019-04-28T02:09:14.541Z,0.00
2019-04-28T02:10:14.544Z,0.00
2019-04-28T02:12:07.456Z,0.00
2019-04-28T02:13:07.454Z,0.00
2019-04-28T02:15:01.152Z,0.00
2019-04-28T02:16:00.377Z,0.00
2019-04-28T02:17:53.283Z,0.00
2019-04-28T02:18:53.291Z,0.00
2019-04-28T02:20:46.211Z,0.00
2019-04-28T02:21:46.207Z,0.00
2019-04-28T02:23:39.709Z,0.00
2019-04-28T02:24:40.475Z,0.00
2019-04-28T02:26:32.023Z,0.00
2019-04-28T02:27:32.031Z,0.00
2019-04-28T02:29:24.942Z,0.00
2019-04-28T02:30:40.909Z,0.00
2019-04-28T02:32:23.785Z,0.00
2019-04-28T02:33:17.861Z,0.00
2019-04-28T02:35:10.985Z,0.00
2019-04-28T02:36:12.372Z,0.00
2019-04-28T02:38:03.686Z,0.00
2019-04-28T02:39:03.688Z,0.00
2019-04-28T02:40:56.595Z,0.00
2019-04-28T02:41:56.599Z,0.00
2019-04-28T02:43:50.973Z,0.00
2019-04-28T02:44:50.399Z,0.00
2019-04-28T02:46:42.418Z,0.00
2019-04-28T02:47:42.457Z,0.00
2019-04-28T02:49:35.358Z,0.00
2019-04-28T02:50:35.407Z,0.00
2019-04-28T02:52:30.928Z,0.00
2019-04-28T02:53:33.233Z,0.00
2019-04-28T02:55:21.401Z,0.00
2019-04-28T02:56:21.417Z,0.00
2019-04-28T02:58:14.062Z,0.00
2019-04-28T02:59:14.078Z,0.00
2019-04-28T03:01:17.966Z,0.00
2019-04-28T03:02:06.987Z,0.00
2019-04-28T03:04:00.424Z,0.00
2019-04-28T03:05:00.468Z,0.00
2019-04-28T03:06:52.810Z,0.00
2019-04-28T03:07:52.829Z,0.00
2019-04-28T03:09:45.727Z,0.00
2019-04-28T03:10:45.732Z,0.00
2019-04-28T03:12:41.135Z,0.00
2019-04-28T03:13:41.054Z,0.00
2019-04-28T03:15:31.551Z,0.00
2019-04-28T03:16:31.671Z,0.00
2019-04-28T03:18:24.457Z,0.00
2019-04-28T03:19:24.469Z,0.00
2019-04-28T03:21:17.375Z,0.00
2019-04-28T03:22:17.382Z,0.00
2019-04-28T03:24:11.020Z,0.00
2019-04-28T03:25:11.050Z,0.00
2019-04-28T03:27:03.562Z,0.00
2019-04-28T03:28:03.205Z,0.00
2019-04-28T03:29:56.127Z,0.00
2019-04-28T03:30:56.117Z,0.00
2019-04-28T03:32:55.428Z,0.00
2019-04-28T03:33:55.197Z,0.00
2019-04-28T03:35:43.894Z,0.00
2019-04-28T03:36:41.940Z,0.00
2019-04-28T03:38:34.846Z,0.00
2019-04-28T03:39:34.851Z,0.00
2019-04-28T03:41:27.772Z,4.00
2019-04-28T03:42:27.768Z,4.00
2019-04-28T03:44:20.971Z,4.00
2019-04-28T03:45:21.201Z,4.00
2019-04-28T03:47:13.584Z,4.00
2019-04-28T03:48:13.592Z,8.00
2019-04-28T03:50:06.534Z,12.00
2019-04-28T03:51:06.503Z,12.00
2019-04-28T03:53:01.106Z,16.00
2019-04-28T03:54:00.620Z,16.00
2019-04-28T03:55:52.323Z,16.00
2019-04-28T03:56:53.719Z,20.00
2019-04-28T03:58:45.243Z,24.00
2019-04-28T03:59:45.238Z,28.00
2019-04-28T04:01:53.071Z,32.00
2019-04-28T04:02:40.916Z,36.00
2019-04-28T04:04:32.227Z,40.00
2019-04-28T04:05:31.066Z,48.00
2019-04-28T04:07:23.968Z,52.00
2019-04-28T04:08:23.979Z,56.00
2019-04-28T04:10:16.895Z,68.00
2019-04-28T04:11:16.898Z,72.00
2019-04-28T04:13:10.930Z,84.00
2019-04-28T04:14:11.439Z,88.00
2019-04-28T04:16:02.713Z,104.00
2019-04-28T04:17:02.718Z,112.00
2019-04-28T04:18:55.627Z,120.00
2019-04-28T04:19:55.632Z,128.00
2019-04-28T04:21:50.544Z,144.00
2019-04-28T04:22:51.194Z,148.00
2019-04-28T04:24:41.454Z,164.00
2019-04-28T04:25:41.901Z,172.00
2019-04-28T04:27:34.359Z,188.00
2019-04-28T04:28:34.370Z,200.00
2019-04-28T04:30:27.277Z,220.00
2019-04-28T04:31:27.280Z,232.00
2019-04-28T04:33:20.943Z,256.00
2019-04-28T04:34:20.312Z,268.00
2019-04-28T04:36:13.114Z,284.00
2019-04-28T04:37:13.106Z,296.00
2019-04-28T04:39:06.017Z,328.00
2019-04-28T04:40:06.018Z,348.00
2019-04-28T04:42:00.664Z,380.00
2019-04-28T04:43:01.367Z,380.00
2019-04-28T04:44:51.842Z,392.00
2019-04-28T04:45:51.851Z,400.00
2019-04-28T04:47:44.749Z,448.00
2019-04-28T04:48:44.761Z,480.00
2019-04-28T04:50:37.679Z,544.00
2019-04-28T04:51:37.671Z,564.00
2019-04-28T04:53:30.859Z,600.00
2019-04-28T04:54:32.749Z,620.00
2019-04-28T04:56:23.490Z,676.00
2019-04-28T04:57:23.494Z,712.00
2019-04-28T04:59:16.404Z,788.00
2019-04-28T05:00:16.406Z,828.00
2019-04-28T05:02:09.978Z,912.00
2019-04-28T05:03:10.591Z,960.00
2019-04-28T05:05:02.230Z,1032.00
2019-04-28T05:06:02.235Z,1064.00
2019-04-28T05:07:55.139Z,1124.00
2019-04-28T05:08:55.147Z,1156.00
2019-04-28T05:10:48.063Z,1228.00
2019-04-28T05:11:49.794Z,1264.00
2019-04-28T05:13:40.965Z,1328.00
2019-04-28T05:14:40.976Z,1360.00
2019-04-28T05:16:33.886Z,1412.00
2019-04-28T05:17:33.890Z,1436.00
2019-04-28T05:19:26.797Z,1480.00
2019-04-28T05:20:26.803Z,1504.00
2019-04-28T05:22:20.193Z,1556.00
2019-04-28T05:23:19.714Z,1588.00
2019-04-28T05:25:12.624Z,1664.00
2019-04-28T05:26:12.628Z,1708.00
2019-04-28T05:28:05.539Z,1800.00
2019-04-28T05:29:05.547Z,1844.00
2019-04-28T05:31:00.078Z,1916.00
2019-04-28T05:31:59.878Z,1944.00
2019-04-28T05:33:51.362Z,2012.00
2019-04-28T05:34:52.880Z,2052.00
2019-04-28T05:36:44.770Z,2148.00
2019-04-28T05:37:44.287Z,2204.00
2019-04-28T05:39:38.565Z,2328.00
2019-04-28T05:40:37.201Z,2400.00
2019-04-28T05:42:30.279Z,2536.00
2019-04-28T05:43:30.113Z,2612.00
2019-04-28T05:45:23.021Z,2760.00
2019-04-28T05:46:23.025Z,2844.00
2019-04-28T05:48:15.926Z,3008.00
2019-04-28T05:49:15.937Z,3096.00
2019-04-28T05:51:09.420Z,3268.00
2019-04-28T05:52:11.645Z,3356.00
2019-04-28T05:54:01.760Z,3520.00
2019-04-28T05:55:01.770Z,3604.00
2019-04-28T05:56:54.684Z,3776.00
2019-04-28T05:57:54.690Z,3868.00
2019-04-28T05:59:47.599Z,4056.00
2019-04-28T06:00:49.775Z,4140.00
2019-04-28T06:02:53.523Z,4292.00
2019-04-28T06:03:40.634Z,4360.00
2019-04-28T06:05:33.428Z,4464.00
2019-04-28T06:06:33.434Z,4508.00
2019-04-28T06:08:26.358Z,4600.00
2019-04-28T06:09:26.372Z,4660.00
2019-04-28T06:11:20.237Z,4820.00
2019-04-28T06:12:20.146Z,4928.00
2019-04-28T06:14:12.189Z,5160.00
2019-04-28T06:15:12.247Z,5304.00
2019-04-28T06:17:05.113Z,5568.00
2019-04-28T06:18:05.116Z,5700.00
2019-04-28T06:20:00.047Z,6020.00
2019-04-28T06:20:58.032Z,6220.00
2019-04-28T06:22:50.939Z,6572.00
2019-04-28T06:23:50.949Z,6736.00
2019-04-28T06:25:43.863Z,6956.00
2019-04-28T06:26:43.871Z,6896.00
2019-04-28T06:28:36.775Z,6064.00
2019-04-28T06:29:36.786Z,5616.00
2019-04-28T06:31:29.700Z,5520.00
2019-04-28T06:32:29.706Z,5788.00
2019-04-28T06:34:22.609Z,6904.00
2019-04-28T06:35:22.620Z,7552.00
2019-04-28T06:37:15.533Z,8264.00
2019-04-28T06:38:15.538Z,8312.00
2019-04-28T06:40:08.464Z,8124.00
2019-04-28T06:41:08.456Z,7956.00
2019-04-28T06:43:01.366Z,7848.00
2019-04-28T06:44:01.379Z,7844.00
2019-04-28T06:45:54.287Z,8232.00
2019-04-28T06:46:54.292Z,8520.00
2019-04-28T06:48:47.201Z,9180.00
2019-04-28T06:49:47.217Z,9292.00
2019-04-28T06:51:40.138Z,9132.00
2019-04-28T06:52:40.135Z,9208.00
2019-04-28T06:54:33.044Z,9184.00
2019-04-28T06:55:33.055Z,9052.00
2019-04-28T06:57:26.008Z,8772.00
2019-04-28T06:58:25.979Z,8804.00
2019-04-28T07:00:18.891Z,8644.00
2019-04-28T07:01:18.897Z,8672.00
2019-04-28T07:03:22.701Z,8944.00
2019-04-28T07:04:11.817Z,9164.00
2019-04-28T07:06:04.729Z,9488.00
2019-04-28T07:07:04.740Z,9520.00
2019-04-28T07:08:57.645Z,9372.00
2019-04-28T07:09:57.666Z,9292.00
2019-04-28T07:11:51.072Z,9448.00
2019-04-28T07:12:51.074Z,9644.00
2019-04-28T07:14:43.994Z,9864.00
2019-04-28T07:15:44.006Z,9808.00
2019-04-28T07:17:36.920Z,9664.00
2019-04-28T07:18:36.923Z,9656.00
2019-04-28T07:20:29.841Z,9888.00
2019-04-28T07:21:29.847Z,10104.00
2019-04-28T07:23:22.757Z,10364.00
2019-04-28T07:24:22.768Z,10420.00
2019-04-28T07:26:15.684Z,10396.00
2019-04-28T07:27:15.695Z,10396.00
2019-04-28T07:29:08.613Z,10488.00
2019-04-28T07:30:08.614Z,10568.00
2019-04-28T07:32:01.542Z,10844.00
2019-04-28T07:33:01.548Z,11076.00
2019-04-28T07:34:54.460Z,11472.00
2019-04-28T07:35:54.473Z,11172.00
2019-04-28T07:37:47.390Z,11168.00
2019-04-28T07:38:47.398Z,11864.00
2019-04-28T07:40:40.313Z,12232.00
2019-04-28T07:41:40.334Z,12600.00
2019-04-28T07:43:33.231Z,13972.00
2019-04-28T07:44:33.245Z,14436.00
2019-04-28T07:46:26.170Z,14628.00
2019-04-28T07:47:26.168Z,14636.00
2019-04-28T07:49:19.082Z,14292.00
2019-04-28T07:50:19.094Z,12836.00
2019-04-28T07:52:12.011Z,11212.00
2019-04-28T07:53:12.021Z,10724.00
2019-04-28T07:55:04.930Z,12488.00
2019-04-28T07:56:04.943Z,12792.00
2019-04-28T07:57:57.882Z,13860.00
2019-04-28T07:58:57.891Z,15168.00
2019-04-28T08:00:50.821Z,16200.00
2019-04-28T08:01:50.829Z,16604.00
2019-04-28T08:03:49.595Z,18080.00
2019-04-28T08:04:43.773Z,18528.00
2019-04-28T08:06:36.677Z,18752.00
2019-04-28T08:07:36.685Z,17824.00
2019-04-28T08:09:29.605Z,13976.00
2019-04-28T08:10:29.620Z,12612.00
2019-04-28T08:12:22.540Z,10836.00
2019-04-28T08:13:22.548Z,10924.00
2019-04-28T08:15:15.463Z,12312.00
2019-04-28T08:16:15.478Z,12820.00
2019-04-28T08:18:08.401Z,13620.00
2019-04-28T08:19:08.409Z,13792.00
2019-04-28T08:21:01.340Z,14692.00
2019-04-28T08:22:01.343Z,15324.00
2019-04-28T08:23:54.252Z,17184.00
2019-04-28T08:24:54.268Z,17952.00
2019-04-28T08:26:47.196Z,16268.00
2019-04-28T08:27:47.199Z,14588.00
2019-04-28T08:29:40.114Z,15480.00
2019-04-28T08:30:40.129Z,16168.00
2019-04-28T08:32:33.052Z,14712.00
2019-04-28T08:33:33.336Z,14244.00
2019-04-28T08:35:25.973Z,15740.00
2019-04-28T08:36:25.990Z,15596.00
2019-04-28T08:38:18.914Z,15284.00
2019-04-28T08:39:18.924Z,15264.00
2019-04-28T08:41:11.846Z,14716.00
2019-04-28T08:42:11.857Z,15048.00
2019-04-28T08:44:04.772Z,13240.00
2019-04-28T08:45:04.789Z,12392.00
2019-04-28T08:46:57.709Z,11516.00
2019-04-28T08:47:58.082Z,12664.00
2019-04-28T08:49:50.635Z,14552.00
2019-04-28T08:50:50.659Z,13608.00
2019-04-28T08:52:43.576Z,13632.00
2019-04-28T08:53:43.587Z,13148.00
2019-04-28T08:55:36.505Z,13120.00
2019-04-28T08:56:36.522Z,14376.00
2019-04-28T08:58:29.444Z,15196.00
2019-04-28T08:59:29.456Z,14660.00
2019-04-28T09:01:22.379Z,14228.00
2019-04-28T09:02:22.389Z,13172.00
2019-04-28T09:04:15.905Z,10064.00
2019-04-28T09:05:15.321Z,7780.00
2019-04-28T09:07:08.242Z,5788.00
2019-04-28T09:08:08.253Z,5652.00
2019-04-28T09:10:01.167Z,7120.00
2019-04-28T09:11:01.185Z,8532.00
2019-04-28T09:12:54.105Z,10680.00
2019-04-28T09:13:54.115Z,11224.00
2019-04-28T09:15:47.028Z,10524.00
2019-04-28T09:16:47.046Z,10160.00
2019-04-28T09:18:39.967Z,10476.00
2019-04-28T09:19:42.348Z,10752.00
2019-04-28T09:21:32.900Z,10904.00
2019-04-28T09:22:32.908Z,10708.00
2019-04-28T09:24:25.821Z,10308.00
2019-04-28T09:25:25.837Z,10064.00
2019-04-28T09:27:18.759Z,9996.00
2019-04-28T09:28:18.767Z,10200.00
2019-04-28T09:30:11.677Z,11356.00
2019-04-28T09:31:11.694Z,12064.00
2019-04-28T09:33:04.613Z,12620.00
2019-04-28T09:34:04.622Z,12560.00
2019-04-28T09:35:57.535Z,11820.00
2019-04-28T09:36:57.548Z,11508.00
2019-04-28T09:38:50.474Z,11128.00
2019-04-28T09:39:50.483Z,10828.00
2019-04-28T09:41:43.403Z,10852.00
2019-04-28T09:42:43.410Z,10972.00
2019-04-28T09:44:36.326Z,11164.00
2019-04-28T09:45:36.339Z,11344.00
2019-04-28T09:47:29.260Z,11748.00
2019-04-28T09:48:29.267Z,12032.00
2019-04-28T09:50:22.185Z,12452.00
2019-04-28T09:51:22.197Z,12668.00
2019-04-28T09:53:15.116Z,12888.00
2019-04-28T09:54:15.127Z,12876.00
2019-04-28T09:56:08.044Z,12908.00
2019-04-28T09:57:08.058Z,12956.00
2019-04-28T09:59:00.978Z,12948.00
2019-04-28T10:00:00.987Z,12988.00
2019-04-28T10:01:53.904Z,13436.00
2019-04-28T10:02:53.919Z,13676.00
2019-04-28T10:04:46.828Z,13940.00
2019-04-28T10:05:46.844Z,14052.00
2019-04-28T10:07:39.771Z,14924.00
2019-04-28T10:08:39.777Z,15156.00
2019-04-28T10:10:32.692Z,15264.00
2019-04-28T10:11:32.707Z,15072.00
2019-04-28T10:13:25.629Z,14616.00
2019-04-28T10:14:25.723Z,14392.00
2019-04-28T10:16:18.552Z,14844.00
2019-04-28T10:17:18.567Z,14960.00
2019-04-28T10:19:11.488Z,15392.00
2019-04-28T10:20:11.500Z,15372.00
2019-04-28T10:22:04.438Z,15008.00
2019-04-28T10:23:04.438Z,14668.00
2019-04-28T10:24:57.359Z,14944.00
2019-04-28T10:25:57.377Z,15000.00
2019-04-28T10:27:50.300Z,14840.00
2019-04-28T10:28:50.310Z,14740.00
2019-04-28T10:30:43.224Z,14576.00
2019-04-28T10:31:43.243Z,14240.00
2019-04-28T10:33:36.164Z,13752.00
2019-04-28T10:34:36.184Z,13536.00
2019-04-28T10:36:29.090Z,13300.00
2019-04-28T10:37:29.107Z,13300.00
2019-04-28T10:39:22.034Z,13112.00
2019-04-28T10:40:22.045Z,13068.00
2019-04-28T10:42:14.963Z,12220.00
2019-04-28T10:43:14.978Z,12048.00
2019-04-28T10:45:07.902Z,11840.00
2019-04-28T10:46:07.911Z,11308.00
2019-04-28T10:48:00.835Z,10392.00
2019-04-28T10:49:00.845Z,8980.00
2019-04-28T10:50:53.812Z,7492.00
2019-04-28T10:51:59.538Z,7632.00
2019-04-28T10:53:46.706Z,8840.00
2019-04-28T10:54:46.716Z,9552.00
2019-04-28T10:56:39.633Z,10700.00
2019-04-28T10:57:39.649Z,11060.00
2019-04-28T10:59:32.576Z,10744.00
2019-04-28T11:00:32.581Z,10476.00
2019-04-28T11:02:25.514Z,10188.00
2019-04-28T11:03:25.521Z,9812.00
2019-04-28T11:05:18.434Z,10060.00
2019-04-28T11:06:18.451Z,11160.00
2019-04-28T11:08:11.369Z,12860.00
2019-04-28T11:09:11.378Z,13512.00
2019-04-28T11:11:04.294Z,13952.00
2019-04-28T11:12:04.307Z,13264.00
2019-04-28T11:13:57.225Z,11672.00
2019-04-28T11:14:57.233Z,10796.00
2019-04-28T11:16:50.146Z,9904.00
2019-04-28T11:19:03.068Z,9956.00
2019-04-28T11:20:03.080Z,9464.00
2019-04-28T11:21:55.990Z,8360.00
2019-04-28T11:22:56.005Z,8240.00
2019-04-28T11:24:48.927Z,8132.00
2019-04-28T11:25:48.933Z,8224.00
2019-04-28T11:27:41.854Z,8684.00
2019-04-28T11:28:41.877Z,8648.00
2019-04-28T11:30:34.771Z,7612.00
2019-04-28T11:31:34.787Z,7660.00
2019-04-28T11:33:27.706Z,7892.00
2019-04-28T11:34:27.713Z,7756.00
2019-04-28T11:36:20.623Z,7508.00
2019-04-28T11:37:20.639Z,7620.00
2019-04-28T11:39:13.571Z,8636.00
2019-04-28T11:40:13.581Z,9652.00
2019-04-28T11:42:06.494Z,11520.00
2019-04-28T11:43:06.509Z,12568.00
2019-04-28T11:44:59.436Z,13212.00
2019-04-28T11:45:59.448Z,12868.00
2019-04-28T11:47:52.370Z,12444.00
2019-04-28T11:48:52.379Z,12660.00
2019-04-28T11:50:45.303Z,12752.00
2019-04-28T11:51:45.366Z,12564.00
2019-04-28T11:53:38.234Z,12216.00
2019-04-28T11:54:38.237Z,12312.00
2019-04-28T11:56:40.819Z,13208.00
2019-04-28T11:57:31.169Z,13748.00
2019-04-28T11:59:24.106Z,14368.00
2019-04-28T12:00:24.105Z,14408.00
2019-04-28T12:02:17.032Z,14188.00
2019-04-28T12:03:17.037Z,14004.00
2019-04-28T12:05:09.961Z,13788.00
2019-04-28T12:06:10.031Z,13524.00
2019-04-28T12:08:02.892Z,13076.00
2019-04-28T12:09:02.903Z,12792.00
2019-04-28T12:10:55.820Z,12376.00
2019-04-28T12:11:55.837Z,11980.00
2019-04-28T12:13:48.766Z,11268.00
2019-04-28T12:14:48.782Z,11148.00
2019-04-28T12:16:41.695Z,11648.00
2019-04-28T12:17:41.712Z,11688.00
2019-04-28T12:19:34.635Z,10908.00
2019-04-28T12:20:34.645Z,10132.00
2019-04-28T12:22:27.564Z,9132.00
2019-04-28T12:23:27.582Z,8908.00
2019-04-28T12:25:20.505Z,8564.00
2019-04-28T12:26:20.522Z,8388.00
2019-04-28T12:28:13.439Z,8396.00
2019-04-28T12:29:13.480Z,8764.00
2019-04-28T12:31:06.367Z,9308.00
2019-04-28T12:32:06.384Z,9676.00
2019-04-28T12:33:59.307Z,10108.00
2019-04-28T12:34:59.317Z,10632.00
2019-04-28T12:36:52.234Z,11172.00
2019-04-28T12:37:52.251Z,11304.00
2019-04-28T12:39:45.176Z,11288.00
2019-04-28T12:40:45.186Z,11084.00
2019-04-28T12:42:38.104Z,11296.00
2019-04-28T12:43:38.121Z,11440.00
2019-04-28T12:45:35.125Z,12928.00
2019-04-28T12:46:31.058Z,13840.00
2019-04-28T12:48:23.983Z,12632.00
2019-04-28T12:49:23.995Z,11352.00
2019-04-28T12:51:16.914Z,8384.00
2019-04-28T12:52:16.933Z,7632.00
2019-04-28T12:54:09.859Z,7364.00
2019-04-28T12:55:09.869Z,6960.00
2019-04-28T12:57:02.789Z,7388.00
2019-04-28T12:58:02.808Z,8084.00
2019-04-28T12:59:56.245Z,7912.00
2019-04-28T13:00:56.239Z,7520.00
2019-04-28T13:02:49.158Z,7792.00
2019-04-28T13:03:49.172Z,7736.00
2019-04-28T13:05:42.095Z,7448.00
2019-04-28T13:06:42.107Z,7464.00
2019-04-28T13:08:35.034Z,8308.00
2019-04-28T13:09:35.043Z,8756.00
2019-04-28T13:11:27.956Z,9520.00
2019-04-28T13:12:27.975Z,9708.00
2019-04-28T13:14:20.895Z,9204.00
2019-04-28T13:15:20.907Z,9296.00
2019-04-28T13:17:13.825Z,9608.00
2019-04-28T13:18:13.841Z,9824.00
2019-04-28T13:20:06.759Z,10164.00
2019-04-28T13:21:06.770Z,10308.00
2019-04-28T13:22:59.684Z,11288.00
2019-04-28T13:23:59.722Z,11768.00
2019-04-28T13:25:52.617Z,12056.00
2019-04-28T13:26:52.630Z,11880.00
2019-04-28T13:28:45.552Z,12072.00
2019-04-28T13:29:45.563Z,12060.00
2019-04-28T13:31:38.547Z,11764.00
2019-04-28T13:32:38.502Z,11740.00
2019-04-28T13:34:31.427Z,12100.00
2019-04-28T13:35:31.430Z,12260.00
2019-04-28T13:37:24.349Z,12368.00
2019-04-28T13:38:24.362Z,12208.00
2019-04-28T13:40:17.285Z,11728.00
2019-04-28T13:41:17.295Z,11492.00
2019-04-28T13:43:10.210Z,11040.00
2019-04-28T13:44:10.226Z,10864.00
2019-04-28T13:46:03.193Z,10860.00
2019-04-28T13:47:03.155Z,10948.00
2019-04-28T13:48:56.094Z,11304.00
2019-04-28T13:49:56.085Z,11448.00
2019-04-28T13:51:49.036Z,11608.00
2019-04-28T13:52:49.017Z,11440.00
2019-04-28T13:54:41.937Z,10640.00
2019-04-28T13:55:41.946Z,10180.00
2019-04-28T13:57:34.864Z,9836.00
2019-04-28T13:58:34.887Z,9776.00
2019-04-28T14:00:27.850Z,9680.00
2019-04-28T14:01:27.846Z,9640.00
2019-04-28T14:03:20.727Z,9404.00
2019-04-28T14:04:20.791Z,9228.00
2019-04-28T14:06:13.689Z,9228.00
2019-04-28T14:07:13.669Z,9360.00
2019-04-28T14:09:06.656Z,9792.00
2019-04-28T14:10:06.702Z,10072.00
2019-04-28T14:11:59.536Z,10408.00
2019-04-28T14:12:59.566Z,10492.00
2019-04-28T14:14:52.463Z,10584.00
2019-04-28T14:15:52.477Z,10672.00
2019-04-28T14:17:45.389Z,10328.00
2019-04-28T14:18:45.405Z,9752.00
2019-04-28T14:20:38.370Z,8428.00
2019-04-28T14:21:38.332Z,7672.00
2019-04-28T14:23:31.300Z,6672.00
2019-04-28T14:24:31.279Z,6504.00
2019-04-28T14:26:24.214Z,6936.00
2019-04-28T14:27:24.222Z,7004.00
2019-04-28T14:29:17.176Z,8076.00
2019-04-28T14:30:17.177Z,9092.00
2019-04-28T14:32:10.112Z,10304.00
2019-04-28T14:33:10.131Z,10640.00
2019-04-28T14:35:03.064Z,10856.00
2019-04-28T14:36:03.040Z,10908.00
2019-04-28T14:37:55.960Z,11044.00
2019-04-28T14:38:55.971Z,11100.00
2019-04-28T14:40:48.899Z,10944.00
2019-04-28T14:41:48.899Z,10512.00
2019-04-28T14:43:41.817Z,9292.00
2019-04-28T14:44:41.828Z,8732.00
2019-04-28T14:46:35.250Z,8064.00
2019-04-28T14:47:35.256Z,7720.00
2019-04-28T14:49:28.194Z,7128.00
2019-04-28T14:50:28.192Z,7104.00
2019-04-28T14:52:21.151Z,7952.00
2019-04-28T14:53:21.127Z,8228.00
2019-04-28T14:55:14.084Z,8600.00
2019-04-28T14:56:14.086Z,8400.00
2019-04-28T14:58:06.982Z,6656.00
2019-04-28T14:59:07.006Z,6028.00
2019-04-28T15:00:59.917Z,5564.00
2019-04-28T15:01:59.927Z,5400.00
2019-04-28T15:03:52.850Z,5060.00
2019-04-28T15:04:52.856Z,4912.00
2019-04-28T15:06:55.382Z,5320.00
2019-04-28T15:07:46.812Z,5860.00
2019-04-28T15:09:40.226Z,5508.00
2019-04-28T15:10:39.718Z,4792.00
2019-04-28T15:12:32.640Z,4108.00
2019-04-28T15:13:32.653Z,4208.00
2019-04-28T15:15:25.572Z,4488.00
2019-04-28T15:16:25.581Z,4396.00
2019-04-28T15:18:18.496Z,4452.00
2019-04-28T15:19:18.502Z,4700.00
2019-04-28T15:21:11.461Z,5024.00
2019-04-28T15:22:11.437Z,5012.00
2019-04-28T15:24:04.347Z,4140.00
2019-04-28T15:25:04.363Z,3552.00
2019-04-28T15:26:57.282Z,2868.00
2019-04-28T15:27:57.292Z,2720.00
2019-04-28T15:29:50.432Z,2752.00
2019-04-28T15:30:50.222Z,2796.00
2019-04-28T15:32:43.142Z,2928.00
2019-04-28T15:33:43.151Z,2976.00
2019-04-28T15:35:36.072Z,3152.00
2019-04-28T15:36:36.081Z,3428.00
2019-04-28T15:38:28.997Z,4032.00
2019-04-28T15:39:29.013Z,4104.00
2019-04-28T15:41:22.276Z,4168.00
2019-04-28T15:42:21.938Z,4020.00
2019-04-28T15:44:14.852Z,3856.00
2019-04-28T15:45:14.866Z,3536.00
2019-04-28T15:47:07.787Z,2612.00
2019-04-28T15:48:07.797Z,2376.00
2019-04-28T15:50:00.707Z,2284.00
2019-04-28T15:51:00.725Z,2308.00
2019-04-28T15:52:53.645Z,2240.00
2019-04-28T15:53:53.654Z,2104.00
2019-04-28T15:55:46.572Z,1824.00
2019-04-28T15:56:46.581Z,1728.00
2019-04-28T15:58:39.494Z,1812.00
2019-04-28T15:59:39.509Z,1904.00
2019-04-28T16:01:32.426Z,2008.00
2019-04-28T16:02:32.440Z,2028.00
2019-04-28T16:04:25.348Z,2000.00
2019-04-28T16:05:25.357Z,1988.00
2019-04-28T16:07:24.790Z,1968.00
2019-04-28T16:08:18.280Z,1952.00
2019-04-28T16:10:11.190Z,1968.00
2019-04-28T16:11:11.204Z,1972.00
2019-04-28T16:13:04.151Z,2024.00
2019-04-28T16:14:04.125Z,2068.00
2019-04-28T16:15:57.039Z,2176.00
2019-04-28T16:16:57.044Z,2280.00
2019-04-28T16:18:49.957Z,2600.00
2019-04-28T16:19:49.966Z,2808.00
2019-04-28T16:21:42.888Z,3140.00
2019-04-28T16:22:42.890Z,3220.00
2019-04-28T16:24:35.799Z,3288.00
2019-04-28T16:25:35.812Z,3348.00
2019-04-28T16:27:28.738Z,3620.00
2019-04-28T16:28:28.729Z,3768.00
2019-04-28T16:30:21.645Z,3896.00
2019-04-28T16:31:21.659Z,3876.00
2019-04-28T16:33:14.573Z,3728.00
2019-04-28T16:34:14.581Z,3584.00
2019-04-28T16:36:07.496Z,3388.00
2019-04-28T16:37:07.504Z,3356.00
2019-04-28T16:39:00.413Z,3360.00
2019-04-28T16:40:00.429Z,3376.00
2019-04-28T16:41:53.338Z,3284.00
2019-04-28T16:42:53.344Z,3172.00
2019-04-28T16:44:46.256Z,2928.00
2019-04-28T16:45:46.269Z,2804.00
2019-04-28T16:47:39.185Z,2628.00
2019-04-28T16:48:39.191Z,2556.00
2019-04-28T16:50:32.143Z,2440.00
2019-04-28T16:51:32.112Z,2404.00
2019-04-28T16:53:25.021Z,2380.00
2019-04-28T16:54:25.200Z,2376.00
2019-04-28T16:56:17.979Z,2368.00
2019-04-28T16:57:17.976Z,2356.00
2019-04-28T16:59:10.880Z,2336.00
2019-04-28T17:00:10.894Z,2324.00
2019-04-28T17:02:03.822Z,2324.00
2019-04-28T17:03:03.819Z,2324.00
2019-04-28T17:04:56.726Z,2332.00
2019-04-28T17:05:56.740Z,2312.00
2019-04-28T17:07:53.254Z,2268.00
2019-04-28T17:08:49.661Z,2244.00
2019-04-28T17:10:42.585Z,2192.00
2019-04-28T17:11:42.598Z,2160.00
2019-04-28T17:13:35.512Z,2112.00
2019-04-28T17:14:35.520Z,2088.00
2019-04-28T17:16:28.435Z,2036.00
2019-04-28T17:17:28.441Z,2008.00
2019-04-28T17:19:21.350Z,1960.00
2019-04-28T17:20:21.363Z,1944.00
2019-04-28T17:22:14.274Z,1928.00
2019-04-28T17:23:14.286Z,1920.00
2019-04-28T17:25:07.190Z,1888.00
2019-04-28T17:26:07.233Z,1872.00
2019-04-28T17:28:01.501Z,1828.00
2019-04-28T17:29:00.124Z,1796.00
2019-04-28T17:30:53.031Z,1744.00
2019-04-28T17:31:53.043Z,1728.00
2019-04-28T17:33:45.956Z,1704.00
2019-04-28T17:34:45.965Z,1692.00
2019-04-28T17:36:38.877Z,1668.00
2019-04-28T17:37:38.882Z,1648.00
2019-04-28T17:39:31.789Z,1608.00
2019-04-28T17:40:31.802Z,1584.00